sensor_id;sensor_type;location;lat;lon;timestamp;temperature;humidity
3592;DHT22;1810;48.720;9.094;2024-01-30T00:00:07;6.90;99.90
3592;DHT22;1810;48.720;9.094;2024-01-30T00:02:36;6.90;99.90
3592;DHT22;1810;48.720;9.094;2024-01-30T00:05:06;6.90;99.90
3592;DHT22;1810;48.720;9.094;2024-01-30T00:07:35;6.90;99.90
3592;DHT22;1810;48.720;9.094;2024-01-30T00:10:03;6.90;99.90
3592;DHT22;1810;48.720;9.094;2024-01-30T00:12:33;6.80;99.90
3592;DHT22;1810;48.720;9.094;2024-01-30T00:15:01;6.80;99.90
3592;DHT22;1810;48.720;9.094;2024-01-30T00:17:31;6.80;99.90
3592;DHT22;1810;48.720;9.094;2024-01-30T00:19:59;6.70;99.90
3592;DHT22;1810;48.720;9.094;2024-01-30T00:22:29;6.60;99.90
3592;DHT22;1810;48.720;9.094;2024-01-30T00:24:57;6.70;99.90
3592;DHT22;1810;48.720;9.094;2024-01-30T00:27:26;6.70;99.90
3592;DHT22;1810;48.720;9.094;2024-01-30T00:29:54;6.80;99.90
3592;DHT22;1810;48.720;9.094;2024-01-30T00:32:23;6.70;99.90
3592;DHT22;1810;48.720;9.094;2024-01-30T00:34:51;6.60;99.90
3592;DHT22;1810;48.720;9.094;2024-01-30T00:37:19;6.70;99.90
3592;DHT22;1810;48.720;9.094;2024-01-30T00:39:49;6.70;99.90
3592;DHT22;1810;48.720;9.094;2024-01-30T00:42:17;6.70;99.90
3592;DHT22;1810;48.720;9.094;2024-01-30T00:44:46;6.80;99.90
3592;DHT22;1810;48.720;9.094;2024-01-30T00:47:14;6.80;99.90
3592;DHT22;1810;48.720;9.094;2024-01-30T00:49:42;6.80;99.90
3592;DHT22;1810;48.720;9.094;2024-01-30T00:52:10;6.90;99.90
3592;DHT22;1810;48.720;9.094;2024-01-30T00:54:39;6.90;99.90
3592;DHT22;1810;48.720;9.094;2024-01-30T00:57:09;7.00;99.90
3592;DHT22;1810;48.720;9.094;2024-01-30T00:59:37;7.00;99.90
3592;DHT22;1810;48.720;9.094;2024-01-30T01:02:05;6.90;99.90
3592;DHT22;1810;48.720;9.094;2024-01-30T01:04:33;6.90;99.90
3592;DHT22;1810;48.720;9.094;2024-01-30T01:07:02;6.90;99.90
3592;DHT22;1810;48.720;9.094;2024-01-30T01:09:30;6.90;99.90
3592;DHT22;1810;48.720;9.094;2024-01-30T01:11:58;7.00;99.90
3592;DHT22;1810;48.720;9.094;2024-01-30T01:14:28;7.00;99.90
3592;DHT22;1810;48.720;9.094;2024-01-30T01:16:56;6.90;99.90
3592;DHT22;1810;48.720;9.094;2024-01-30T01:19:24;6.90;99.90
3592;DHT22;1810;48.720;9.094;2024-01-30T01:21:53;6.90;99.90
3592;DHT22;1810;48.720;9.094;2024-01-30T01:24:22;6.80;99.90
3592;DHT22;1810;48.720;9.094;2024-01-30T01:26:50;6.80;99.90
3592;DHT22;1810;48.720;9.094;2024-01-30T01:29:18;6.80;99.90
3592;DHT22;1810;48.720;9.094;2024-01-30T01:31:49;6.80;99.90
3592;DHT22;1810;48.720;9.094;2024-01-30T01:34:17;6.70;99.90
3592;DHT22;1810;48.720;9.094;2024-01-30T01:36:45;6.70;99.90
3592;DHT22;1810;48.720;9.094;2024-01-30T01:39:13;6.70;99.90
3592;DHT22;1810;48.720;9.094;2024-01-30T01:41:42;6.70;99.90
3592;DHT22;1810;48.720;9.094;2024-01-30T01:44:10;6.60;99.90
3592;DHT22;1810;48.720;9.094;2024-01-30T01:46:38;6.70;99.90
3592;DHT22;1810;48.720;9.094;2024-01-30T01:49:08;6.70;99.90
3592;DHT22;1810;48.720;9.094;2024-01-30T01:51:38;6.70;99.90
3592;DHT22;1810;48.720;9.094;2024-01-30T01:54:08;6.70;99.90
3592;DHT22;1810;48.720;9.094;2024-01-30T01:56:37;6.80;99.90
3592;DHT22;1810;48.720;9.094;2024-01-30T01:59:06;6.80;99.90
3592;DHT22;1810;48.720;9.094;2024-01-30T02:01:36;6.80;99.90
3592;DHT22;1810;48.720;9.094;2024-01-30T02:04:05;6.80;99.90
3592;DHT22;1810;48.720;9.094;2024-01-30T02:06:36;6.80;99.90
3592;DHT22;1810;48.720;9.094;2024-01-30T02:09:04;6.80;99.90
3592;DHT22;1810;48.720;9.094;2024-01-30T02:11:33;6.80;99.90
3592;DHT22;1810;48.720;9.094;2024-01-30T02:14:02;6.70;99.90
3592;DHT22;1810;48.720;9.094;2024-01-30T02:16:31;6.80;99.90
3592;DHT22;1810;48.720;9.094;2024-01-30T02:19:05;6.70;99.90
3592;DHT22;1810;48.720;9.094;2024-01-30T02:21:36;6.70;99.90
3592;DHT22;1810;48.720;9.094;2024-01-30T02:24:05;6.70;99.90
3592;DHT22;1810;48.720;9.094;2024-01-30T02:26:34;6.60;99.90
3592;DHT22;1810;48.720;9.094;2024-01-30T02:29:02;6.60;99.90
3592;DHT22;1810;48.720;9.094;2024-01-30T02:31:30;6.50;99.90
3592;DHT22;1810;48.720;9.094;2024-01-30T02:33:58;6.50;99.90
3592;DHT22;1810;48.720;9.094;2024-01-30T02:36:26;6.50;99.90
3592;DHT22;1810;48.720;9.094;2024-01-30T02:38:56;6.40;99.90
3592;DHT22;1810;48.720;9.094;2024-01-30T02:41:24;6.40;99.90
3592;DHT22;1810;48.720;9.094;2024-01-30T02:43:52;6.40;99.90
3592;DHT22;1810;48.720;9.094;2024-01-30T02:46:20;6.40;99.90
3592;DHT22;1810;48.720;9.094;2024-01-30T02:48:48;6.30;99.90
3592;DHT22;1810;48.720;9.094;2024-01-30T02:51:17;6.30;99.90
3592;DHT22;1810;48.720;9.094;2024-01-30T02:53:45;6.20;99.90
3592;DHT22;1810;48.720;9.094;2024-01-30T02:56:14;6.20;99.90
3592;DHT22;1810;48.720;9.094;2024-01-30T02:58:43;6.20;99.90
3592;DHT22;1810;48.720;9.094;2024-01-30T03:01:11;6.20;99.90
3592;DHT22;1810;48.720;9.094;2024-01-30T03:03:39;6.20;99.90
3592;DHT22;1810;48.720;9.094;2024-01-30T03:06:07;6.20;99.90
3592;DHT22;1810;48.720;9.094;2024-01-30T03:08:35;6.20;99.90
3592;DHT22;1810;48.720;9.094;2024-01-30T03:11:04;6.20;99.90
3592;DHT22;1810;48.720;9.094;2024-01-30T03:13:33;6.20;99.90
3592;DHT22;1810;48.720;9.094;2024-01-30T03:16:01;6.20;99.90
3592;DHT22;1810;48.720;9.094;2024-01-30T03:18:30;6.20;99.90
3592;DHT22;1810;48.720;9.094;2024-01-30T03:20:58;6.20;99.90
3592;DHT22;1810;48.720;9.094;2024-01-30T03:23:26;6.20;99.90
3592;DHT22;1810;48.720;9.094;2024-01-30T03:25:54;6.20;99.90
3592;DHT22;1810;48.720;9.094;2024-01-30T03:28:22;6.20;99.90
3592;DHT22;1810;48.720;9.094;2024-01-30T03:30:52;6.20;99.90
3592;DHT22;1810;48.720;9.094;2024-01-30T03:33:20;6.30;99.90
3592;DHT22;1810;48.720;9.094;2024-01-30T03:35:48;6.30;99.90
3592;DHT22;1810;48.720;9.094;2024-01-30T03:38:16;6.40;99.90
3592;DHT22;1810;48.720;9.094;2024-01-30T03:40:44;6.40;99.90
3592;DHT22;1810;48.720;9.094;2024-01-30T03:43:12;6.50;99.90
3592;DHT22;1810;48.720;9.094;2024-01-30T03:45:41;6.40;99.90
3592;DHT22;1810;48.720;9.094;2024-01-30T03:48:11;6.50;99.90
3592;DHT22;1810;48.720;9.094;2024-01-30T03:50:39;6.50;99.90
3592;DHT22;1810;48.720;9.094;2024-01-30T03:53:07;6.50;99.90
3592;DHT22;1810;48.720;9.094;2024-01-30T03:55:35;6.50;99.90
3592;DHT22;1810;48.720;9.094;2024-01-30T03:58:03;6.50;99.90
3592;DHT22;1810;48.720;9.094;2024-01-30T04:00:31;6.40;99.90
3592;DHT22;1810;48.720;9.094;2024-01-30T04:03:00;6.50;99.90
3592;DHT22;1810;48.720;9.094;2024-01-30T04:05:29;6.50;99.90
3592;DHT22;1810;48.720;9.094;2024-01-30T04:07:58;6.50;99.90
3592;DHT22;1810;48.720;9.094;2024-01-30T04:10:26;6.50;99.90
3592;DHT22;1810;48.720;9.094;2024-01-30T04:12:55;6.40;99.90
3592;DHT22;1810;48.720;9.094;2024-01-30T04:15:23;6.40;99.90
3592;DHT22;1810;48.720;9.094;2024-01-30T04:17:51;6.50;99.90
3592;DHT22;1810;48.720;9.094;2024-01-30T04:20:19;6.50;99.90
3592;DHT22;1810;48.720;9.094;2024-01-30T04:22:49;6.50;99.90
3592;DHT22;1810;48.720;9.094;2024-01-30T04:25:17;6.40;99.90
3592;DHT22;1810;48.720;9.094;2024-01-30T04:27:45;6.40;99.90
3592;DHT22;1810;48.720;9.094;2024-01-30T04:30:14;6.40;99.90
3592;DHT22;1810;48.720;9.094;2024-01-30T04:32:43;6.40;99.90
3592;DHT22;1810;48.720;9.094;2024-01-30T04:35:11;6.30;99.90
3592;DHT22;1810;48.720;9.094;2024-01-30T04:37:40;6.40;99.90
3592;DHT22;1810;48.720;9.094;2024-01-30T04:40:10;6.40;99.90
3592;DHT22;1810;48.720;9.094;2024-01-30T04:42:39;6.40;99.90
3592;DHT22;1810;48.720;9.094;2024-01-30T04:45:08;6.40;99.90
3592;DHT22;1810;48.720;9.094;2024-01-30T04:47:37;6.40;99.90
3592;DHT22;1810;48.720;9.094;2024-01-30T04:50:07;6.40;99.90
3592;DHT22;1810;48.720;9.094;2024-01-30T04:52:36;6.40;99.90
3592;DHT22;1810;48.720;9.094;2024-01-30T04:55:05;6.50;99.90
3592;DHT22;1810;48.720;9.094;2024-01-30T04:57:35;6.50;99.90
3592;DHT22;1810;48.720;9.094;2024-01-30T05:00:04;6.50;99.90
3592;DHT22;1810;48.720;9.094;2024-01-30T05:02:33;6.50;99.90
3592;DHT22;1810;48.720;9.094;2024-01-30T05:05:01;6.50;99.90
3592;DHT22;1810;48.720;9.094;2024-01-30T05:07:31;6.50;99.90
3592;DHT22;1810;48.720;9.094;2024-01-30T05:09:59;6.50;99.90
3592;DHT22;1810;48.720;9.094;2024-01-30T05:12:32;6.50;99.90
3592;DHT22;1810;48.720;9.094;2024-01-30T05:15:02;6.50;99.90
3592;DHT22;1810;48.720;9.094;2024-01-30T05:17:30;6.40;99.90
3592;DHT22;1810;48.720;9.094;2024-01-30T05:19:58;6.40;99.90
3592;DHT22;1810;48.720;9.094;2024-01-30T05:22:27;6.30;99.90
3592;DHT22;1810;48.720;9.094;2024-01-30T05:24:55;6.20;99.90
3592;DHT22;1810;48.720;9.094;2024-01-30T05:27:23;6.20;99.90
3592;DHT22;1810;48.720;9.094;2024-01-30T05:29:51;6.10;99.90
3592;DHT22;1810;48.720;9.094;2024-01-30T05:32:21;6.10;99.90
3592;DHT22;1810;48.720;9.094;2024-01-30T05:34:50;6.10;99.90
3592;DHT22;1810;48.720;9.094;2024-01-30T05:37:18;6.10;99.90
3592;DHT22;1810;48.720;9.094;2024-01-30T05:39:46;6.20;99.90
3592;DHT22;1810;48.720;9.094;2024-01-30T05:42:15;6.20;99.90
3592;DHT22;1810;48.720;9.094;2024-01-30T05:44:43;6.20;99.90
3592;DHT22;1810;48.720;9.094;2024-01-30T05:47:11;6.30;99.90
3592;DHT22;1810;48.720;9.094;2024-01-30T05:49:41;6.40;99.90
3592;DHT22;1810;48.720;9.094;2024-01-30T05:52:09;6.40;99.90
3592;DHT22;1810;48.720;9.094;2024-01-30T05:54:37;6.40;99.90
3592;DHT22;1810;48.720;9.094;2024-01-30T05:57:06;6.30;99.90
3592;DHT22;1810;48.720;9.094;2024-01-30T05:59:34;6.30;99.90
3592;DHT22;1810;48.720;9.094;2024-01-30T06:02:07;6.30;99.90
3592;DHT22;1810;48.720;9.094;2024-01-30T06:04:35;6.30;99.90
3592;DHT22;1810;48.720;9.094;2024-01-30T06:07:05;6.30;99.90
3592;DHT22;1810;48.720;9.094;2024-01-30T06:09:34;6.30;99.90
3592;DHT22;1810;48.720;9.094;2024-01-30T06:12:03;6.30;99.90
3592;DHT22;1810;48.720;9.094;2024-01-30T06:14:32;6.30;99.90
3592;DHT22;1810;48.720;9.094;2024-01-30T06:17:01;6.30;99.90
3592;DHT22;1810;48.720;9.094;2024-01-30T06:19:29;6.30;99.90
3592;DHT22;1810;48.720;9.094;2024-01-30T06:21:57;6.30;99.90
3592;DHT22;1810;48.720;9.094;2024-01-30T06:24:27;6.40;99.90
3592;DHT22;1810;48.720;9.094;2024-01-30T06:26:55;6.40;99.90
3592;DHT22;1810;48.720;9.094;2024-01-30T06:29:23;6.40;99.90
3592;DHT22;1810;48.720;9.094;2024-01-30T06:31:53;6.40;99.90
3592;DHT22;1810;48.720;9.094;2024-01-30T06:34:21;6.30;99.90
3592;DHT22;1810;48.720;9.094;2024-01-30T06:36:50;6.40;99.90
3592;DHT22;1810;48.720;9.094;2024-01-30T06:39:18;6.40;99.90
3592;DHT22;1810;48.720;9.094;2024-01-30T06:41:47;6.50;99.90
3592;DHT22;1810;48.720;9.094;2024-01-30T06:44:16;6.50;99.90
3592;DHT22;1810;48.720;9.094;2024-01-30T06:46:44;6.50;99.90
3592;DHT22;1810;48.720;9.094;2024-01-30T06:49:12;6.60;99.90
3592;DHT22;1810;48.720;9.094;2024-01-30T06:51:40;6.60;99.90
3592;DHT22;1810;48.720;9.094;2024-01-30T06:54:08;6.50;99.90
3592;DHT22;1810;48.720;9.094;2024-01-30T06:56:37;6.60;99.90
3592;DHT22;1810;48.720;9.094;2024-01-30T06:59:06;6.50;99.90
3592;DHT22;1810;48.720;9.094;2024-01-30T07:01:35;6.60;99.90
3592;DHT22;1810;48.720;9.094;2024-01-30T07:04:03;6.50;99.90
3592;DHT22;1810;48.720;9.094;2024-01-30T07:06:32;6.60;99.90
3592;DHT22;1810;48.720;9.094;2024-01-30T07:09:00;6.60;99.90
3592;DHT22;1810;48.720;9.094;2024-01-30T07:11:30;6.70;99.90
3592;DHT22;1810;48.720;9.094;2024-01-30T07:13:59;6.70;99.90
3592;DHT22;1810;48.720;9.094;2024-01-30T07:16:29;6.80;99.90
3592;DHT22;1810;48.720;9.094;2024-01-30T07:18:57;6.80;99.90
3592;DHT22;1810;48.720;9.094;2024-01-30T07:21:26;6.80;99.90
3592;DHT22;1810;48.720;9.094;2024-01-30T07:23:55;6.80;99.90
3592;DHT22;1810;48.720;9.094;2024-01-30T07:26:23;6.80;99.90
3592;DHT22;1810;48.720;9.094;2024-01-30T07:28:52;6.80;99.90
3592;DHT22;1810;48.720;9.094;2024-01-30T07:31:20;6.70;99.90
3592;DHT22;1810;48.720;9.094;2024-01-30T07:33:51;6.80;99.90
3592;DHT22;1810;48.720;9.094;2024-01-30T07:36:20;6.80;99.90
3592;DHT22;1810;48.720;9.094;2024-01-30T07:38:48;6.90;99.90
3592;DHT22;1810;48.720;9.094;2024-01-30T07:41:16;7.00;99.90
3592;DHT22;1810;48.720;9.094;2024-01-30T07:43:44;7.00;99.90
3592;DHT22;1810;48.720;9.094;2024-01-30T07:46:12;7.10;99.90
3592;DHT22;1810;48.720;9.094;2024-01-30T07:48:40;7.10;99.90
3592;DHT22;1810;48.720;9.094;2024-01-30T07:51:10;7.20;99.90
3592;DHT22;1810;48.720;9.094;2024-01-30T07:53:38;7.20;99.90
3592;DHT22;1810;48.720;9.094;2024-01-30T07:56:09;7.30;99.90
3592;DHT22;1810;48.720;9.094;2024-01-30T07:58:37;7.30;99.90
3592;DHT22;1810;48.720;9.094;2024-01-30T08:01:05;7.40;99.90
3592;DHT22;1810;48.720;9.094;2024-01-30T08:03:34;7.50;99.90
3592;DHT22;1810;48.720;9.094;2024-01-30T08:06:03;7.60;99.90
3592;DHT22;1810;48.720;9.094;2024-01-30T08:08:34;7.60;99.90
3592;DHT22;1810;48.720;9.094;2024-01-30T08:11:04;7.70;99.90
3592;DHT22;1810;48.720;9.094;2024-01-30T08:13:32;7.80;99.90
3592;DHT22;1810;48.720;9.094;2024-01-30T08:16:00;8.00;99.90
3592;DHT22;1810;48.720;9.094;2024-01-30T08:18:28;8.10;99.90
3592;DHT22;1810;48.720;9.094;2024-01-30T08:20:57;8.20;99.90
3592;DHT22;1810;48.720;9.094;2024-01-30T08:23:25;8.10;99.90
3592;DHT22;1810;48.720;9.094;2024-01-30T08:25:54;8.30;99.90
3592;DHT22;1810;48.720;9.094;2024-01-30T08:28:23;8.40;99.90
3592;DHT22;1810;48.720;9.094;2024-01-30T08:30:51;8.50;99.90
3592;DHT22;1810;48.720;9.094;2024-01-30T08:33:19;8.50;99.90
3592;DHT22;1810;48.720;9.094;2024-01-30T08:35:47;8.50;99.90
3592;DHT22;1810;48.720;9.094;2024-01-30T08:38:15;8.60;99.90
3592;DHT22;1810;48.720;9.094;2024-01-30T08:40:44;8.60;99.90
3592;DHT22;1810;48.720;9.094;2024-01-30T08:43:13;8.80;99.90
3592;DHT22;1810;48.720;9.094;2024-01-30T08:45:42;8.80;99.90
3592;DHT22;1810;48.720;9.094;2024-01-30T08:48:10;8.80;99.90
3592;DHT22;1810;48.720;9.094;2024-01-30T08:50:39;8.70;99.90
3592;DHT22;1810;48.720;9.094;2024-01-30T08:53:07;8.80;99.90
3592;DHT22;1810;48.720;9.094;2024-01-30T08:55:35;8.80;99.90
3592;DHT22;1810;48.720;9.094;2024-01-30T08:58:03;8.80;99.90
3592;DHT22;1810;48.720;9.094;2024-01-30T09:00:33;8.90;99.90
3592;DHT22;1810;48.720;9.094;2024-01-30T09:03:01;8.90;99.90
3592;DHT22;1810;48.720;9.094;2024-01-30T09:05:30;8.80;99.90
3592;DHT22;1810;48.720;9.094;2024-01-30T09:07:59;8.90;99.90
3592;DHT22;1810;48.720;9.094;2024-01-30T09:15:24;9.00;99.90
3592;DHT22;1810;48.720;9.094;2024-01-30T09:17:54;9.30;99.90
3592;DHT22;1810;48.720;9.094;2024-01-30T09:20:22;9.30;99.90
3592;DHT22;1810;48.720;9.094;2024-01-30T09:22:50;9.40;99.90
3592;DHT22;1810;48.720;9.094;2024-01-30T09:25:19;9.50;99.90
3592;DHT22;1810;48.720;9.094;2024-01-30T09:27:47;9.60;99.90
3592;DHT22;1810;48.720;9.094;2024-01-30T09:30:16;9.70;99.90
3592;DHT22;1810;48.720;9.094;2024-01-30T09:32:45;9.70;99.90
3592;DHT22;1810;48.720;9.094;2024-01-30T09:35:14;9.70;99.90
3592;DHT22;1810;48.720;9.094;2024-01-30T09:37:43;9.90;99.90
3592;DHT22;1810;48.720;9.094;2024-01-30T09:40:11;9.80;99.90
3592;DHT22;1810;48.720;9.094;2024-01-30T09:42:40;10.00;99.90
3592;DHT22;1810;48.720;9.094;2024-01-30T09:45:13;10.00;99.90
3592;DHT22;1810;48.720;9.094;2024-01-30T09:47:43;10.10;99.90
3592;DHT22;1810;48.720;9.094;2024-01-30T09:50:14;10.10;99.90
3592;DHT22;1810;48.720;9.094;2024-01-30T09:55:12;10.20;99.90
3592;DHT22;1810;48.720;9.094;2024-01-30T09:57:41;10.50;99.90
3592;DHT22;1810;48.720;9.094;2024-01-30T10:00:11;10.70;99.90
3592;DHT22;1810;48.720;9.094;2024-01-30T10:02:40;10.80;99.90
3592;DHT22;1810;48.720;9.094;2024-01-30T10:05:10;10.70;99.90
3592;DHT22;1810;48.720;9.094;2024-01-30T10:07:50;10.80;99.90
3592;DHT22;1810;48.720;9.094;2024-01-30T10:10:21;10.90;99.90
3592;DHT22;1810;48.720;9.094;2024-01-30T10:12:50;10.90;99.90
3592;DHT22;1810;48.720;9.094;2024-01-30T10:15:18;11.00;99.90
3592;DHT22;1810;48.720;9.094;2024-01-30T10:17:47;11.00;99.90
3592;DHT22;1810;48.720;9.094;2024-01-30T10:20:15;11.00;99.90
3592;DHT22;1810;48.720;9.094;2024-01-30T10:22:46;11.10;99.90
3592;DHT22;1810;48.720;9.094;2024-01-30T10:25:15;11.00;99.90
3592;DHT22;1810;48.720;9.094;2024-01-30T10:27:43;11.10;99.90
3592;DHT22;1810;48.720;9.094;2024-01-30T10:30:13;11.20;99.90
3592;DHT22;1810;48.720;9.094;2024-01-30T10:32:41;11.20;99.90
3592;DHT22;1810;48.720;9.094;2024-01-30T10:35:09;11.20;99.90
3592;DHT22;1810;48.720;9.094;2024-01-30T10:37:38;11.20;99.90
3592;DHT22;1810;48.720;9.094;2024-01-30T10:40:09;11.20;99.90
3592;DHT22;1810;48.720;9.094;2024-01-30T10:42:43;11.30;99.90
3592;DHT22;1810;48.720;9.094;2024-01-30T14:03:26;11.40;99.90
3592;DHT22;1810;48.720;9.094;2024-01-30T14:05:54;13.40;99.90
3592;DHT22;1810;48.720;9.094;2024-01-30T14:08:22;13.30;99.90
3592;DHT22;1810;48.720;9.094;2024-01-30T14:10:54;13.20;99.90
3592;DHT22;1810;48.720;9.094;2024-01-30T14:13:23;13.00;99.90
3592;DHT22;1810;48.720;9.094;2024-01-30T14:15:52;13.00;99.90
3592;DHT22;1810;48.720;9.094;2024-01-30T14:18:20;12.90;99.90
3592;DHT22;1810;48.720;9.094;2024-01-30T14:20:48;12.90;99.90
3592;DHT22;1810;48.720;9.094;2024-01-30T14:23:17;12.90;99.90
3592;DHT22;1810;48.720;9.094;2024-01-30T14:25:45;12.90;99.90
3592;DHT22;1810;48.720;9.094;2024-01-30T14:28:39;12.80;99.90
3592;DHT22;1810;48.720;9.094;2024-01-30T14:31:08;12.80;99.90
3592;DHT22;1810;48.720;9.094;2024-01-30T14:33:36;12.70;99.90
3592;DHT22;1810;48.720;9.094;2024-01-30T14:36:07;12.70;99.90
3592;DHT22;1810;48.720;9.094;2024-01-30T14:38:36;12.60;99.90
3592;DHT22;1810;48.720;9.094;2024-01-30T14:41:04;12.50;99.90
3592;DHT22;1810;48.720;9.094;2024-01-30T14:43:32;12.50;99.90
3592;DHT22;1810;48.720;9.094;2024-01-30T14:46:02;12.40;99.90
3592;DHT22;1810;48.720;9.094;2024-01-30T15:10:55;12.40;99.90
3592;DHT22;1810;48.720;9.094;2024-01-30T15:18:22;11.60;99.90
3592;DHT22;1810;48.720;9.094;2024-01-30T15:20:51;11.30;99.90
3592;DHT22;1810;48.720;9.094;2024-01-30T15:23:20;11.20;99.90
3592;DHT22;1810;48.720;9.094;2024-01-30T15:25:48;11.10;99.90
3592;DHT22;1810;48.720;9.094;2024-01-30T15:28:16;11.10;99.90
3592;DHT22;1810;48.720;9.094;2024-01-30T15:30:46;11.00;99.90
3592;DHT22;1810;48.720;9.094;2024-01-30T15:33:14;10.90;99.90
3592;DHT22;1810;48.720;9.094;2024-01-30T15:35:43;10.80;99.90
3592;DHT22;1810;48.720;9.094;2024-01-30T15:38:13;10.70;99.90
3592;DHT22;1810;48.720;9.094;2024-01-30T15:40:42;10.70;99.90
3592;DHT22;1810;48.720;9.094;2024-01-30T15:43:10;10.70;99.90
3592;DHT22;1810;48.720;9.094;2024-01-30T15:45:38;10.80;99.90
3592;DHT22;1810;48.720;9.094;2024-01-30T15:48:07;10.80;99.90
3592;DHT22;1810;48.720;9.094;2024-01-30T15:50:36;10.60;99.90
3592;DHT22;1810;48.720;9.094;2024-01-30T15:53:06;10.60;99.90
3592;DHT22;1810;48.720;9.094;2024-01-30T15:55:35;10.40;99.90
3592;DHT22;1810;48.720;9.094;2024-01-30T15:58:04;10.30;99.90
3592;DHT22;1810;48.720;9.094;2024-01-30T16:00:33;10.10;99.90
3592;DHT22;1810;48.720;9.094;2024-01-30T16:03:01;10.00;99.90
3592;DHT22;1810;48.720;9.094;2024-01-30T16:05:29;10.00;99.90
3592;DHT22;1810;48.720;9.094;2024-01-30T16:07:57;9.90;99.90
3592;DHT22;1810;48.720;9.094;2024-01-30T16:10:26;9.90;99.90
3592;DHT22;1810;48.720;9.094;2024-01-30T16:12:56;9.80;99.90
3592;DHT22;1810;48.720;9.094;2024-01-30T16:15:24;9.80;99.90
3592;DHT22;1810;48.720;9.094;2024-01-30T16:17:52;9.70;99.90
3592;DHT22;1810;48.720;9.094;2024-01-30T16:20:21;9.60;99.90
3592;DHT22;1810;48.720;9.094;2024-01-30T16:22:49;9.50;99.90
3592;DHT22;1810;48.720;9.094;2024-01-30T16:25:21;9.40;99.90
3592;DHT22;1810;48.720;9.094;2024-01-30T16:27:50;9.40;99.90
3592;DHT22;1810;48.720;9.094;2024-01-30T16:30:19;9.30;99.90
3592;DHT22;1810;48.720;9.094;2024-01-30T16:32:48;9.30;99.90
3592;DHT22;1810;48.720;9.094;2024-01-30T16:35:17;9.20;99.90
3592;DHT22;1810;48.720;9.094;2024-01-30T16:37:46;9.20;99.90
3592;DHT22;1810;48.720;9.094;2024-01-30T16:40:14;9.30;99.90
3592;DHT22;1810;48.720;9.094;2024-01-30T16:42:42;9.10;99.90
3592;DHT22;1810;48.720;9.094;2024-01-30T16:45:10;9.20;99.90
3592;DHT22;1810;48.720;9.094;2024-01-30T16:47:40;9.20;99.90
3592;DHT22;1810;48.720;9.094;2024-01-30T16:50:09;9.10;99.90
3592;DHT22;1810;48.720;9.094;2024-01-30T16:52:39;9.10;99.90
3592;DHT22;1810;48.720;9.094;2024-01-30T16:55:07;9.10;99.90
3592;DHT22;1810;48.720;9.094;2024-01-30T16:57:35;9.00;99.90
3592;DHT22;1810;48.720;9.094;2024-01-30T17:00:04;9.00;99.90
3592;DHT22;1810;48.720;9.094;2024-01-30T17:02:33;9.00;99.90
3592;DHT22;1810;48.720;9.094;2024-01-30T17:05:03;9.00;99.90
3592;DHT22;1810;48.720;9.094;2024-01-30T17:07:49;8.90;99.90
3592;DHT22;1810;48.720;9.094;2024-01-30T17:10:17;9.00;99.90
3592;DHT22;1810;48.720;9.094;2024-01-30T17:12:45;9.00;99.90
3592;DHT22;1810;48.720;9.094;2024-01-30T17:15:14;9.00;99.90
3592;DHT22;1810;48.720;9.094;2024-01-30T17:17:42;9.00;99.90
3592;DHT22;1810;48.720;9.094;2024-01-30T17:20:12;8.90;99.90
3592;DHT22;1810;48.720;9.094;2024-01-30T17:22:40;8.90;99.90
3592;DHT22;1810;48.720;9.094;2024-01-30T17:25:12;8.90;99.90
3592;DHT22;1810;48.720;9.094;2024-01-30T17:27:41;9.00;99.90
3592;DHT22;1810;48.720;9.094;2024-01-30T17:30:12;8.90;99.90
3592;DHT22;1810;48.720;9.094;2024-01-30T17:32:41;8.90;99.90
3592;DHT22;1810;48.720;9.094;2024-01-30T17:35:09;8.90;99.90
3592;DHT22;1810;48.720;9.094;2024-01-30T17:37:39;9.00;99.90
3592;DHT22;1810;48.720;9.094;2024-01-30T17:40:08;9.00;99.90
3592;DHT22;1810;48.720;9.094;2024-01-30T17:42:37;8.90;99.90
3592;DHT22;1810;48.720;9.094;2024-01-30T17:45:06;9.00;99.90
3592;DHT22;1810;48.720;9.094;2024-01-30T17:47:35;9.00;99.90
3592;DHT22;1810;48.720;9.094;2024-01-30T17:50:05;8.90;99.90
3592;DHT22;1810;48.720;9.094;2024-01-30T17:52:33;8.90;99.90
3592;DHT22;1810;48.720;9.094;2024-01-30T17:55:03;8.90;99.90
3592;DHT22;1810;48.720;9.094;2024-01-30T17:57:32;8.90;99.90
3592;DHT22;1810;48.720;9.094;2024-01-30T18:00:01;9.00;99.90
3592;DHT22;1810;48.720;9.094;2024-01-30T18:02:32;8.90;99.90
3592;DHT22;1810;48.720;9.094;2024-01-30T18:05:02;8.90;99.90
3592;DHT22;1810;48.720;9.094;2024-01-30T18:07:32;8.90;99.90
3592;DHT22;1810;48.720;9.094;2024-01-30T18:10:02;8.90;99.90
3592;DHT22;1810;48.720;9.094;2024-01-30T18:12:31;8.90;99.90
3592;DHT22;1810;48.720;9.094;2024-01-30T18:14:59;8.90;99.90
3592;DHT22;1810;48.720;9.094;2024-01-30T18:17:29;9.00;99.90
3592;DHT22;1810;48.720;9.094;2024-01-30T18:19:58;9.00;99.90
3592;DHT22;1810;48.720;9.094;2024-01-30T18:22:27;9.00;99.90
3592;DHT22;1810;48.720;9.094;2024-01-30T18:24:56;9.00;99.90
3592;DHT22;1810;48.720;9.094;2024-01-30T18:27:25;9.10;99.90
3592;DHT22;1810;48.720;9.094;2024-01-30T18:29:54;9.10;99.90
3592;DHT22;1810;48.720;9.094;2024-01-30T18:32:25;9.10;99.90
3592;DHT22;1810;48.720;9.094;2024-01-30T18:34:54;9.10;99.90
3592;DHT22;1810;48.720;9.094;2024-01-30T18:37:22;9.20;99.90
3592;DHT22;1810;48.720;9.094;2024-01-30T18:39:51;9.10;99.90
3592;DHT22;1810;48.720;9.094;2024-01-30T18:42:19;9.20;99.90
3592;DHT22;1810;48.720;9.094;2024-01-30T18:44:52;9.30;99.90
3592;DHT22;1810;48.720;9.094;2024-01-30T18:47:21;9.30;99.90
3592;DHT22;1810;48.720;9.094;2024-01-30T18:49:49;9.30;99.90
3592;DHT22;1810;48.720;9.094;2024-01-30T18:52:20;9.20;99.90
3592;DHT22;1810;48.720;9.094;2024-01-30T18:54:48;9.30;99.90
3592;DHT22;1810;48.720;9.094;2024-01-30T18:57:17;9.30;99.90
3592;DHT22;1810;48.720;9.094;2024-01-30T18:59:47;9.40;99.90
3592;DHT22;1810;48.720;9.094;2024-01-30T19:02:18;9.30;99.90
3592;DHT22;1810;48.720;9.094;2024-01-30T19:04:47;9.30;99.90
3592;DHT22;1810;48.720;9.094;2024-01-30T19:07:17;9.30;99.90
3592;DHT22;1810;48.720;9.094;2024-01-30T19:09:46;9.40;99.90
3592;DHT22;1810;48.720;9.094;2024-01-30T19:12:17;9.30;99.90
3592;DHT22;1810;48.720;9.094;2024-01-30T19:14:47;9.40;99.90
3592;DHT22;1810;48.720;9.094;2024-01-30T19:17:18;9.30;99.90
3592;DHT22;1810;48.720;9.094;2024-01-30T19:19:48;9.30;99.90
3592;DHT22;1810;48.720;9.094;2024-01-30T19:22:17;9.40;99.90
3592;DHT22;1810;48.720;9.094;2024-01-30T19:24:46;9.40;99.90
3592;DHT22;1810;48.720;9.094;2024-01-30T19:27:16;9.40;99.90
3592;DHT22;1810;48.720;9.094;2024-01-30T19:29:44;9.40;99.90
3592;DHT22;1810;48.720;9.094;2024-01-30T19:32:17;9.40;99.90
3592;DHT22;1810;48.720;9.094;2024-01-30T19:34:49;9.50;99.90
3592;DHT22;1810;48.720;9.094;2024-01-30T19:37:19;9.60;99.90
3592;DHT22;1810;48.720;9.094;2024-01-30T19:39:52;9.50;99.90
3592;DHT22;1810;48.720;9.094;2024-01-30T19:42:20;9.50;99.90
3592;DHT22;1810;48.720;9.094;2024-01-30T19:44:49;9.50;99.90
3592;DHT22;1810;48.720;9.094;2024-01-30T19:47:18;9.40;99.90
3592;DHT22;1810;48.720;9.094;2024-01-30T19:49:47;9.50;99.90
3592;DHT22;1810;48.720;9.094;2024-01-30T19:52:15;9.50;99.90
3592;DHT22;1810;48.720;9.094;2024-01-30T19:54:44;9.40;99.90
3592;DHT22;1810;48.720;9.094;2024-01-30T19:57:12;9.40;99.90
3592;DHT22;1810;48.720;9.094;2024-01-30T19:59:40;9.40;99.90
3592;DHT22;1810;48.720;9.094;2024-01-30T20:02:08;9.40;99.90
3592;DHT22;1810;48.720;9.094;2024-01-30T20:04:44;9.30;99.90
3592;DHT22;1810;48.720;9.094;2024-01-30T20:07:13;9.30;99.90
3592;DHT22;1810;48.720;9.094;2024-01-30T20:09:44;9.30;99.90
3592;DHT22;1810;48.720;9.094;2024-01-30T20:12:12;9.20;99.90
3592;DHT22;1810;48.720;9.094;2024-01-30T20:14:40;9.30;99.90
3592;DHT22;1810;48.720;9.094;2024-01-30T20:17:09;9.30;99.90